Kushiro Airport Kushiro JP
ICAO: RJCK
IATA:
Category: Medium
Scheduled Services:

Elevation: 327 ft
TransAlt. 14000 ft.

Airport Communications:
SAPPORO CON:127.5
TWR:118.05

RJCK Zoom In..

If you have problems with the map follow the link
https://www.worldairports.se/pages/airport.php?
ICAO=RJCK

Runways:

(A) RW 17 length 8202 ft width 148 ft
ILS 108.90 / hdg 168

(B) RW 35 length 8202 ft width 148 ft
---- / hdg 348

Location; RJCK
Day. 17 / Time. 02.00 Zulu
* QNH: 1003
* Temperature: 07° c. 44.6°f.
* Wind from: 280° Speed 10 kn.
Dewpoint: -02° c.
Visibility: 10 km or more.
Clouds: Few 3000 ft.

RJCK 170200Z 28010KT 9999 FEW030 07/M02 Q1003


Wind From 280°
Speed 10 kn.

 
 
jpsmedia.com for Web Design worldairports.se 2018   terms of use